sensor_id;sensor_type;location;lat;lon;timestamp;P1;durP1;ratioP1;P2;durP2;ratioP2
43345;SDS011;28937;51.160;4.146;2023-02-01T00:01:44;22.70;;;5.82;;
43345;SDS011;28937;51.160;4.146;2023-02-01T00:04:10;21.58;;;5.95;;
43345;SDS011;28937;51.160;4.146;2023-02-01T00:06:36;23.15;;;6.93;;
43345;SDS011;28937;51.160;4.146;2023-02-01T00:09:01;18.58;;;6.35;;
43345;SDS011;28937;51.160;4.146;2023-02-01T00:11:27;20.15;;;6.40;;
43345;SDS011;28937;51.160;4.146;2023-02-01T00:13:53;19.67;;;5.82;;
43345;SDS011;28937;51.160;4.146;2023-02-01T00:16:20;20.88;;;6.28;;
43345;SDS011;28937;51.160;4.146;2023-02-01T00:18:50;20.55;;;4.82;;
43345;SDS011;28937;51.160;4.146;2023-02-01T00:21:17;17.65;;;5.65;;
43345;SDS011;28937;51.160;4.146;2023-02-01T00:23:44;19.27;;;6.07;;
43345;SDS011;28937;51.160;4.146;2023-02-01T00:26:14;18.90;;;5.93;;
43345;SDS011;28937;51.160;4.146;2023-02-01T00:28:41;22.50;;;6.45;;
43345;SDS011;28937;51.160;4.146;2023-02-01T00:31:07;18.70;;;6.45;;
43345;SDS011;28937;51.160;4.146;2023-02-01T00:33:33;18.27;;;5.43;;
43345;SDS011;28937;51.160;4.146;2023-02-01T00:36:00;20.83;;;5.82;;
43345;SDS011;28937;51.160;4.146;2023-02-01T00:38:27;15.57;;;5.15;;
43345;SDS011;28937;51.160;4.146;2023-02-01T00:40:54;19.98;;;5.78;;
43345;SDS011;28937;51.160;4.146;2023-02-01T00:43:20;17.23;;;5.13;;
43345;SDS011;28937;51.160;4.146;2023-02-01T00:45:46;23.98;;;6.07;;
43345;SDS011;28937;51.160;4.146;2023-02-01T00:48:12;16.70;;;5.20;;
43345;SDS011;28937;51.160;4.146;2023-02-01T00:50:41;11.65;;;5.00;;
43345;SDS011;28937;51.160;4.146;2023-02-01T00:53:10;21.73;;;5.63;;
43345;SDS011;28937;51.160;4.146;2023-02-01T00:55:36;17.30;;;6.18;;
43345;SDS011;28937;51.160;4.146;2023-02-01T00:58:01;20.45;;;6.45;;
43345;SDS011;28937;51.160;4.146;2023-02-01T01:00:27;23.23;;;6.90;;
43345;SDS011;28937;51.160;4.146;2023-02-01T01:02:53;21.83;;;6.30;;
43345;SDS011;28937;51.160;4.146;2023-02-01T01:05:19;15.93;;;6.32;;
43345;SDS011;28937;51.160;4.146;2023-02-01T01:07:45;24.25;;;8.25;;
43345;SDS011;28937;51.160;4.146;2023-02-01T01:10:10;23.73;;;7.18;;
43345;SDS011;28937;51.160;4.146;2023-02-01T01:12:36;25.50;;;7.85;;
43345;SDS011;28937;51.160;4.146;2023-02-01T01:15:01;20.50;;;7.75;;
43345;SDS011;28937;51.160;4.146;2023-02-01T01:17:27;21.95;;;7.47;;
43345;SDS011;28937;51.160;4.146;2023-02-01T01:19:53;25.65;;;8.23;;
43345;SDS011;28937;51.160;4.146;2023-02-01T01:22:18;20.00;;;6.97;;
43345;SDS011;28937;51.160;4.146;2023-02-01T01:24:44;19.60;;;6.40;;
43345;SDS011;28937;51.160;4.146;2023-02-01T01:27:09;17.30;;;5.97;;
43345;SDS011;28937;51.160;4.146;2023-02-01T01:29:35;17.52;;;6.75;;
43345;SDS011;28937;51.160;4.146;2023-02-01T01:32:01;18.60;;;5.68;;
43345;SDS011;28937;51.160;4.146;2023-02-01T01:34:27;21.65;;;5.90;;
43345;SDS011;28937;51.160;4.146;2023-02-01T01:36:52;21.15;;;6.60;;
43345;SDS011;28937;51.160;4.146;2023-02-01T01:39:18;20.08;;;6.40;;
43345;SDS011;28937;51.160;4.146;2023-02-01T01:41:43;19.08;;;7.05;;
43345;SDS011;28937;51.160;4.146;2023-02-01T01:47:13;19.70;;;6.88;;
43345;SDS011;28937;51.160;4.146;2023-02-01T01:49:40;22.40;;;5.80;;
43345;SDS011;28937;51.160;4.146;2023-02-01T01:52:05;20.52;;;5.68;;
43345;SDS011;28937;51.160;4.146;2023-02-01T01:54:33;19.63;;;5.63;;
43345;SDS011;28937;51.160;4.146;2023-02-01T01:57:06;14.38;;;4.43;;
43345;SDS011;28937;51.160;4.146;2023-02-01T01:59:36;21.02;;;5.15;;
43345;SDS011;28937;51.160;4.146;2023-02-01T02:02:05;20.40;;;5.10;;
43345;SDS011;28937;51.160;4.146;2023-02-01T02:04:31;20.92;;;6.50;;
43345;SDS011;28937;51.160;4.146;2023-02-01T02:07:02;16.95;;;5.07;;
43345;SDS011;28937;51.160;4.146;2023-02-01T02:09:30;16.30;;;5.20;;
43345;SDS011;28937;51.160;4.146;2023-02-01T02:11:56;18.85;;;5.03;;
43345;SDS011;28937;51.160;4.146;2023-02-01T02:14:22;21.63;;;6.20;;
43345;SDS011;28937;51.160;4.146;2023-02-01T02:30:41;19.23;;;6.13;;
43345;SDS011;28937;51.160;4.146;2023-02-01T02:36:49;22.35;;;5.88;;
43345;SDS011;28937;51.160;4.146;2023-02-01T02:45:18;17.65;;;4.43;;
43345;SDS011;28937;51.160;4.146;2023-02-01T02:50:43;12.60;;;3.95;;
43345;SDS011;28937;51.160;4.146;2023-02-01T02:53:43;17.08;;;3.55;;
43345;SDS011;28937;51.160;4.146;2023-02-01T02:56:49;14.25;;;4.55;;
43345;SDS011;28937;51.160;4.146;2023-02-01T02:59:36;14.60;;;4.00;;
43345;SDS011;28937;51.160;4.146;2023-02-01T03:02:23;18.38;;;4.47;;
43345;SDS011;28937;51.160;4.146;2023-02-01T03:05:10;18.48;;;4.38;;
43345;SDS011;28937;51.160;4.146;2023-02-01T03:16:10;15.50;;;3.60;;
43345;SDS011;28937;51.160;4.146;2023-02-01T03:21:26;15.80;;;4.00;;
43345;SDS011;28937;51.160;4.146;2023-02-01T03:24:00;19.80;;;4.75;;
43345;SDS011;28937;51.160;4.146;2023-02-01T03:26:30;17.02;;;4.38;;
43345;SDS011;28937;51.160;4.146;2023-02-01T03:29:05;16.05;;;3.88;;
43345;SDS011;28937;51.160;4.146;2023-02-01T03:31:39;14.68;;;4.03;;
43345;SDS011;28937;51.160;4.146;2023-02-01T03:34:05;18.67;;;4.13;;
43345;SDS011;28937;51.160;4.146;2023-02-01T03:36:48;20.52;;;5.00;;
43345;SDS011;28937;51.160;4.146;2023-02-01T03:41:58;18.70;;;4.82;;
43345;SDS011;28937;51.160;4.146;2023-02-01T03:44:29;14.23;;;4.18;;
43345;SDS011;28937;51.160;4.146;2023-02-01T03:49:43;20.67;;;5.10;;
43345;SDS011;28937;51.160;4.146;2023-02-01T03:52:14;14.57;;;4.70;;
43345;SDS011;28937;51.160;4.146;2023-02-01T03:54:44;16.33;;;4.53;;
43345;SDS011;28937;51.160;4.146;2023-02-01T03:57:11;15.93;;;4.22;;
43345;SDS011;28937;51.160;4.146;2023-02-01T03:59:41;15.50;;;4.32;;
43345;SDS011;28937;51.160;4.146;2023-02-01T04:02:09;20.00;;;4.68;;
43345;SDS011;28937;51.160;4.146;2023-02-01T04:04:35;17.92;;;4.65;;
43345;SDS011;28937;51.160;4.146;2023-02-01T04:07:02;17.73;;;4.57;;
43345;SDS011;28937;51.160;4.146;2023-02-01T04:09:27;18.70;;;4.57;;
43345;SDS011;28937;51.160;4.146;2023-02-01T04:11:53;11.70;;;3.35;;
43345;SDS011;28937;51.160;4.146;2023-02-01T04:14:18;23.15;;;5.00;;
43345;SDS011;28937;51.160;4.146;2023-02-01T04:16:44;17.95;;;4.57;;
43345;SDS011;28937;51.160;4.146;2023-02-01T04:19:10;19.55;;;4.18;;
43345;SDS011;28937;51.160;4.146;2023-02-01T04:21:35;18.65;;;4.90;;
43345;SDS011;28937;51.160;4.146;2023-02-01T04:24:01;15.48;;;4.00;;
43345;SDS011;28937;51.160;4.146;2023-02-01T04:26:27;20.70;;;4.80;;
43345;SDS011;28937;51.160;4.146;2023-02-01T04:28:52;20.65;;;5.40;;
43345;SDS011;28937;51.160;4.146;2023-02-01T04:31:18;20.58;;;4.53;;
43345;SDS011;28937;51.160;4.146;2023-02-01T04:33:53;17.80;;;5.20;;
43345;SDS011;28937;51.160;4.146;2023-02-01T04:36:20;18.13;;;4.30;;
43345;SDS011;28937;51.160;4.146;2023-02-01T04:38:47;14.88;;;4.43;;
43345;SDS011;28937;51.160;4.146;2023-02-01T04:41:16;18.95;;;4.63;;
43345;SDS011;28937;51.160;4.146;2023-02-01T04:43:47;15.18;;;4.20;;
43345;SDS011;28937;51.160;4.146;2023-02-01T04:46:13;22.30;;;4.30;;
43345;SDS011;28937;51.160;4.146;2023-02-01T04:48:39;18.83;;;4.22;;
43345;SDS011;28937;51.160;4.146;2023-02-01T04:51:05;21.35;;;4.70;;
43345;SDS011;28937;51.160;4.146;2023-02-01T04:53:31;16.85;;;4.35;;
43345;SDS011;28937;51.160;4.146;2023-02-01T04:55:57;19.73;;;5.13;;
43345;SDS011;28937;51.160;4.146;2023-02-01T04:58:22;15.55;;;4.18;;
43345;SDS011;28937;51.160;4.146;2023-02-01T05:00:48;14.38;;;4.18;;
43345;SDS011;28937;51.160;4.146;2023-02-01T05:03:14;18.13;;;4.55;;
43345;SDS011;28937;51.160;4.146;2023-02-01T05:05:40;15.10;;;3.95;;
43345;SDS011;28937;51.160;4.146;2023-02-01T05:08:05;16.55;;;4.20;;
43345;SDS011;28937;51.160;4.146;2023-02-01T05:10:31;18.50;;;5.20;;
43345;SDS011;28937;51.160;4.146;2023-02-01T05:12:57;19.75;;;5.07;;
43345;SDS011;28937;51.160;4.146;2023-02-01T05:15:41;15.43;;;3.67;;
43345;SDS011;28937;51.160;4.146;2023-02-01T05:18:06;21.98;;;5.25;;
43345;SDS011;28937;51.160;4.146;2023-02-01T05:20:32;13.88;;;4.07;;
43345;SDS011;28937;51.160;4.146;2023-02-01T05:22:57;15.57;;;3.50;;
43345;SDS011;28937;51.160;4.146;2023-02-01T05:25:23;23.50;;;5.45;;
43345;SDS011;28937;51.160;4.146;2023-02-01T05:27:48;17.33;;;4.13;;
43345;SDS011;28937;51.160;4.146;2023-02-01T05:30:14;18.48;;;4.78;;
43345;SDS011;28937;51.160;4.146;2023-02-01T05:32:40;20.98;;;4.40;;
43345;SDS011;28937;51.160;4.146;2023-02-01T05:35:06;17.75;;;4.70;;
43345;SDS011;28937;51.160;4.146;2023-02-01T05:37:32;17.80;;;4.68;;
43345;SDS011;28937;51.160;4.146;2023-02-01T05:39:57;15.82;;;4.38;;
43345;SDS011;28937;51.160;4.146;2023-02-01T05:42:23;24.50;;;4.82;;
43345;SDS011;28937;51.160;4.146;2023-02-01T05:44:48;20.92;;;4.50;;
43345;SDS011;28937;51.160;4.146;2023-02-01T05:47:14;23.70;;;4.70;;
43345;SDS011;28937;51.160;4.146;2023-02-01T05:49:39;15.23;;;4.18;;
43345;SDS011;28937;51.160;4.146;2023-02-01T05:52:05;22.92;;;5.45;;
43345;SDS011;28937;51.160;4.146;2023-02-01T05:54:31;22.38;;;4.43;;
43345;SDS011;28937;51.160;4.146;2023-02-01T05:56:56;16.50;;;4.00;;
43345;SDS011;28937;51.160;4.146;2023-02-01T05:59:22;21.58;;;4.65;;
43345;SDS011;28937;51.160;4.146;2023-02-01T06:01:47;15.43;;;4.35;;
43345;SDS011;28937;51.160;4.146;2023-02-01T06:04:13;19.02;;;4.32;;
43345;SDS011;28937;51.160;4.146;2023-02-01T06:06:39;24.98;;;5.10;;
43345;SDS011;28937;51.160;4.146;2023-02-01T06:09:05;18.35;;;4.55;;
43345;SDS011;28937;51.160;4.146;2023-02-01T06:11:31;15.57;;;4.40;;
43345;SDS011;28937;51.160;4.146;2023-02-01T06:13:56;17.77;;;4.03;;
43345;SDS011;28937;51.160;4.146;2023-02-01T06:16:22;15.20;;;3.58;;
43345;SDS011;28937;51.160;4.146;2023-02-01T06:18:48;14.32;;;3.95;;
43345;SDS011;28937;51.160;4.146;2023-02-01T06:21:14;20.00;;;5.00;;
43345;SDS011;28937;51.160;4.146;2023-02-01T06:23:48;17.90;;;4.32;;
43345;SDS011;28937;51.160;4.146;2023-02-01T06:26:20;16.55;;;3.67;;
43345;SDS011;28937;51.160;4.146;2023-02-01T06:28:46;15.52;;;3.63;;
43345;SDS011;28937;51.160;4.146;2023-02-01T06:31:11;15.77;;;4.82;;
43345;SDS011;28937;51.160;4.146;2023-02-01T06:33:37;22.92;;;4.10;;
43345;SDS011;28937;51.160;4.146;2023-02-01T06:36:04;18.20;;;4.28;;
43345;SDS011;28937;51.160;4.146;2023-02-01T06:38:31;14.38;;;3.63;;
43345;SDS011;28937;51.160;4.146;2023-02-01T06:41:00;20.75;;;4.20;;
43345;SDS011;28937;51.160;4.146;2023-02-01T06:43:27;20.13;;;4.72;;
43345;SDS011;28937;51.160;4.146;2023-02-01T06:45:53;13.68;;;4.18;;
43345;SDS011;28937;51.160;4.146;2023-02-01T06:48:19;21.73;;;4.75;;
43345;SDS011;28937;51.160;4.146;2023-02-01T06:50:44;22.75;;;3.97;;
43345;SDS011;28937;51.160;4.146;2023-02-01T06:53:10;22.08;;;4.70;;
43345;SDS011;28937;51.160;4.146;2023-02-01T06:55:36;17.23;;;4.45;;
43345;SDS011;28937;51.160;4.146;2023-02-01T06:58:01;19.25;;;4.22;;
43345;SDS011;28937;51.160;4.146;2023-02-01T07:00:28;19.23;;;4.65;;
43345;SDS011;28937;51.160;4.146;2023-02-01T07:02:54;17.20;;;4.32;;
43345;SDS011;28937;51.160;4.146;2023-02-01T07:05:22;16.98;;;3.80;;
43345;SDS011;28937;51.160;4.146;2023-02-01T07:07:47;25.25;;;5.80;;
43345;SDS011;28937;51.160;4.146;2023-02-01T07:10:13;21.02;;;5.05;;
43345;SDS011;28937;51.160;4.146;2023-02-01T07:12:39;20.60;;;5.10;;
43345;SDS011;28937;51.160;4.146;2023-02-01T07:15:04;21.05;;;4.32;;
43345;SDS011;28937;51.160;4.146;2023-02-01T07:17:31;16.13;;;4.68;;
43345;SDS011;28937;51.160;4.146;2023-02-01T07:19:56;18.02;;;4.63;;
43345;SDS011;28937;51.160;4.146;2023-02-01T07:22:24;16.08;;;4.45;;
43345;SDS011;28937;51.160;4.146;2023-02-01T07:24:50;14.63;;;3.60;;
43345;SDS011;28937;51.160;4.146;2023-02-01T07:27:15;14.73;;;3.58;;
43345;SDS011;28937;51.160;4.146;2023-02-01T07:29:41;14.75;;;3.30;;
43345;SDS011;28937;51.160;4.146;2023-02-01T07:32:07;16.50;;;3.72;;
43345;SDS011;28937;51.160;4.146;2023-02-01T07:34:32;17.02;;;3.45;;
43345;SDS011;28937;51.160;4.146;2023-02-01T07:36:58;13.95;;;3.38;;
43345;SDS011;28937;51.160;4.146;2023-02-01T07:39:24;16.40;;;4.05;;
43345;SDS011;28937;51.160;4.146;2023-02-01T07:41:49;14.57;;;3.90;;
43345;SDS011;28937;51.160;4.146;2023-02-01T07:44:15;12.40;;;3.70;;
43345;SDS011;28937;51.160;4.146;2023-02-01T07:46:43;17.70;;;4.20;;
43345;SDS011;28937;51.160;4.146;2023-02-01T07:49:09;14.52;;;3.22;;
43345;SDS011;28937;51.160;4.146;2023-02-01T07:51:35;12.27;;;3.38;;
43345;SDS011;28937;51.160;4.146;2023-02-01T07:54:00;17.05;;;3.85;;
43345;SDS011;28937;51.160;4.146;2023-02-01T07:56:26;16.52;;;4.05;;
43345;SDS011;28937;51.160;4.146;2023-02-01T07:58:52;15.13;;;4.13;;
43345;SDS011;28937;51.160;4.146;2023-02-01T08:01:21;13.43;;;3.47;;
43345;SDS011;28937;51.160;4.146;2023-02-01T08:03:53;11.70;;;3.40;;
43345;SDS011;28937;51.160;4.146;2023-02-01T08:06:20;14.57;;;3.35;;
43345;SDS011;28937;51.160;4.146;2023-02-01T08:08:47;11.98;;;2.80;;
43345;SDS011;28937;51.160;4.146;2023-02-01T08:11:14;16.33;;;3.55;;
43345;SDS011;28937;51.160;4.146;2023-02-01T08:13:40;13.65;;;3.58;;
43345;SDS011;28937;51.160;4.146;2023-02-01T08:16:07;16.02;;;3.90;;
43345;SDS011;28937;51.160;4.146;2023-02-01T08:18:34;14.50;;;3.53;;
43345;SDS011;28937;51.160;4.146;2023-02-01T08:21:05;17.25;;;3.53;;
43345;SDS011;28937;51.160;4.146;2023-02-01T08:23:32;13.48;;;3.65;;
43345;SDS011;28937;51.160;4.146;2023-02-01T08:26:21;14.15;;;3.95;;
43345;SDS011;28937;51.160;4.146;2023-02-01T08:28:50;14.85;;;3.83;;
43345;SDS011;28937;51.160;4.146;2023-02-01T08:31:19;13.00;;;3.50;;
43345;SDS011;28937;51.160;4.146;2023-02-01T08:33:56;15.77;;;4.00;;
43345;SDS011;28937;51.160;4.146;2023-02-01T08:36:23;11.68;;;3.75;;
43345;SDS011;28937;51.160;4.146;2023-02-01T08:38:50;14.05;;;4.05;;
43345;SDS011;28937;51.160;4.146;2023-02-01T08:41:17;14.10;;;3.97;;
43345;SDS011;28937;51.160;4.146;2023-02-01T08:43:44;15.27;;;3.92;;
43345;SDS011;28937;51.160;4.146;2023-02-01T08:46:10;17.08;;;4.30;;
43345;SDS011;28937;51.160;4.146;2023-02-01T08:48:37;18.80;;;3.83;;
43345;SDS011;28937;51.160;4.146;2023-02-01T08:51:07;15.00;;;4.00;;
43345;SDS011;28937;51.160;4.146;2023-02-01T08:53:34;15.03;;;4.00;;
43345;SDS011;28937;51.160;4.146;2023-02-01T08:56:01;11.70;;;3.50;;
43345;SDS011;28937;51.160;4.146;2023-02-01T08:58:27;15.07;;;4.32;;
43345;SDS011;28937;51.160;4.146;2023-02-01T09:00:52;14.52;;;3.88;;
43345;SDS011;28937;51.160;4.146;2023-02-01T09:03:18;16.77;;;3.65;;
43345;SDS011;28937;51.160;4.146;2023-02-01T09:05:44;12.38;;;3.38;;
43345;SDS011;28937;51.160;4.146;2023-02-01T09:08:10;18.23;;;4.53;;
43345;SDS011;28937;51.160;4.146;2023-02-01T09:10:39;15.63;;;4.50;;
43345;SDS011;28937;51.160;4.146;2023-02-01T09:13:06;12.57;;;3.83;;
43345;SDS011;28937;51.160;4.146;2023-02-01T09:15:32;12.18;;;3.90;;
43345;SDS011;28937;51.160;4.146;2023-02-01T09:17:58;14.77;;;4.40;;
43345;SDS011;28937;51.160;4.146;2023-02-01T09:20:24;17.98;;;3.83;;
43345;SDS011;28937;51.160;4.146;2023-02-01T09:22:50;14.93;;;3.90;;
43345;SDS011;28937;51.160;4.146;2023-02-01T09:25:16;16.90;;;4.15;;
43345;SDS011;28937;51.160;4.146;2023-02-01T09:27:42;11.07;;;3.33;;
43345;SDS011;28937;51.160;4.146;2023-02-01T09:30:08;14.48;;;3.90;;
43345;SDS011;28937;51.160;4.146;2023-02-01T09:32:34;16.08;;;3.80;;
43345;SDS011;28937;51.160;4.146;2023-02-01T09:35:00;17.13;;;4.55;;
43345;SDS011;28937;51.160;4.146;2023-02-01T09:37:26;16.25;;;4.30;;
43345;SDS011;28937;51.160;4.146;2023-02-01T09:39:51;13.73;;;3.30;;
43345;SDS011;28937;51.160;4.146;2023-02-01T09:48:32;14.93;;;4.10;;
43345;SDS011;28937;51.160;4.146;2023-02-01T09:51:02;17.15;;;3.70;;
43345;SDS011;28937;51.160;4.146;2023-02-01T09:53:39;20.67;;;4.32;;
43345;SDS011;28937;51.160;4.146;2023-02-01T09:56:12;14.95;;;4.07;;
43345;SDS011;28937;51.160;4.146;2023-02-01T10:01:52;18.90;;;4.40;;
43345;SDS011;28937;51.160;4.146;2023-02-01T10:04:18;15.35;;;4.35;;
43345;SDS011;28937;51.160;4.146;2023-02-01T10:25:55;14.85;;;3.83;;
43345;SDS011;28937;51.160;4.146;2023-02-01T10:28:27;24.63;;;4.88;;
43345;SDS011;28937;51.160;4.146;2023-02-01T10:30:59;22.15;;;5.45;;
43345;SDS011;28937;51.160;4.146;2023-02-01T10:33:26;28.10;;;5.93;;
43345;SDS011;28937;51.160;4.146;2023-02-01T10:36:04;21.10;;;6.20;;
43345;SDS011;28937;51.160;4.146;2023-02-01T10:38:38;27.10;;;5.55;;
43345;SDS011;28937;51.160;4.146;2023-02-01T10:41:15;22.67;;;5.47;;
43345;SDS011;28937;51.160;4.146;2023-02-01T10:43:48;29.05;;;5.75;;
43345;SDS011;28937;51.160;4.146;2023-02-01T10:46:18;25.60;;;5.20;;
43345;SDS011;28937;51.160;4.146;2023-02-01T10:48:43;18.98;;;4.70;;
43345;SDS011;28937;51.160;4.146;2023-02-01T10:51:20;16.58;;;3.90;;
43345;SDS011;28937;51.160;4.146;2023-02-01T10:56:24;21.30;;;4.43;;
43345;SDS011;28937;51.160;4.146;2023-02-01T10:58:51;21.27;;;5.00;;
43345;SDS011;28937;51.160;4.146;2023-02-01T11:01:37;21.02;;;4.60;;
43345;SDS011;28937;51.160;4.146;2023-02-01T11:04:07;19.15;;;5.05;;
43345;SDS011;28937;51.160;4.146;2023-02-01T11:06:40;16.67;;;3.53;;
43345;SDS011;28937;51.160;4.146;2023-02-01T11:09:22;19.60;;;4.43;;
43345;SDS011;28937;51.160;4.146;2023-02-01T11:14:19;17.00;;;3.90;;
43345;SDS011;28937;51.160;4.146;2023-02-01T11:16:53;17.70;;;3.63;;
43345;SDS011;28937;51.160;4.146;2023-02-01T11:19:18;16.25;;;3.55;;
43345;SDS011;28937;51.160;4.146;2023-02-01T11:21:44;19.10;;;3.72;;
43345;SDS011;28937;51.160;4.146;2023-02-01T11:24:22;13.45;;;3.40;;
43345;SDS011;28937;51.160;4.146;2023-02-01T11:26:48;11.80;;;3.00;;
43345;SDS011;28937;51.160;4.146;2023-02-01T11:29:16;15.18;;;3.55;;
43345;SDS011;28937;51.160;4.146;2023-02-01T11:34:17;10.90;;;2.80;;
43345;SDS011;28937;51.160;4.146;2023-02-01T11:36:45;12.43;;;2.65;;
43345;SDS011;28937;51.160;4.146;2023-02-01T11:42:04;7.32;;;2.40;;
43345;SDS011;28937;51.160;4.146;2023-02-01T11:44:38;11.70;;;2.65;;
43345;SDS011;28937;51.160;4.146;2023-02-01T11:49:52;12.50;;;3.13;;
43345;SDS011;28937;51.160;4.146;2023-02-01T11:57:46;8.35;;;2.15;;
43345;SDS011;28937;51.160;4.146;2023-02-01T12:00:23;11.80;;;2.30;;
43345;SDS011;28937;51.160;4.146;2023-02-01T12:11:46;10.60;;;2.33;;
43345;SDS011;28937;51.160;4.146;2023-02-01T12:28:28;11.00;;;2.33;;
43345;SDS011;28937;51.160;4.146;2023-02-01T12:42:59;8.60;;;2.22;;
43345;SDS011;28937;51.160;4.146;2023-02-01T12:48:22;10.10;;;2.33;;
43345;SDS011;28937;51.160;4.146;2023-02-01T12:50:54;9.80;;;2.72;;
43345;SDS011;28937;51.160;4.146;2023-02-01T12:53:30;12.20;;;2.83;;
43345;SDS011;28937;51.160;4.146;2023-02-01T12:56:38;11.65;;;2.80;;
43345;SDS011;28937;51.160;4.146;2023-02-01T12:59:18;8.18;;;2.40;;
43345;SDS011;28937;51.160;4.146;2023-02-01T13:07:21;9.45;;;2.30;;
43345;SDS011;28937;51.160;4.146;2023-02-01T13:10:18;13.57;;;2.20;;
43345;SDS011;28937;51.160;4.146;2023-02-01T13:12:59;10.40;;;2.17;;
43345;SDS011;28937;51.160;4.146;2023-02-01T13:15:36;8.75;;;2.20;;
43345;SDS011;28937;51.160;4.146;2023-02-01T13:18:11;7.45;;;1.95;;
43345;SDS011;28937;51.160;4.146;2023-02-01T13:20:49;10.68;;;2.35;;
43345;SDS011;28937;51.160;4.146;2023-02-01T13:23:38;10.45;;;2.65;;
43345;SDS011;28937;51.160;4.146;2023-02-01T13:26:05;10.73;;;2.70;;
43345;SDS011;28937;51.160;4.146;2023-02-01T13:28:34;12.38;;;2.30;;
43345;SDS011;28937;51.160;4.146;2023-02-01T13:31:33;9.60;;;1.95;;
43345;SDS011;28937;51.160;4.146;2023-02-01T13:42:27;12.05;;;2.35;;
43345;SDS011;28937;51.160;4.146;2023-02-01T13:45:15;15.43;;;2.92;;
43345;SDS011;28937;51.160;4.146;2023-02-01T13:47:45;14.15;;;2.72;;
43345;SDS011;28937;51.160;4.146;2023-02-01T13:50:34;9.32;;;2.35;;
43345;SDS011;28937;51.160;4.146;2023-02-01T13:55:38;13.10;;;2.50;;
43345;SDS011;28937;51.160;4.146;2023-02-01T13:58:32;13.05;;;2.58;;
43345;SDS011;28937;51.160;4.146;2023-02-01T14:03:54;18.73;;;2.72;;
43345;SDS011;28937;51.160;4.146;2023-02-01T14:19:30;11.35;;;2.50;;
43345;SDS011;28937;51.160;4.146;2023-02-01T14:21:58;10.55;;;2.38;;
43345;SDS011;28937;51.160;4.146;2023-02-01T14:24:48;11.60;;;2.50;;
43345;SDS011;28937;51.160;4.146;2023-02-01T14:27:19;16.50;;;2.47;;
43345;SDS011;28937;51.160;4.146;2023-02-01T14:29:51;13.48;;;3.00;;
43345;SDS011;28937;51.160;4.146;2023-02-01T14:32:26;15.05;;;2.70;;
43345;SDS011;28937;51.160;4.146;2023-02-01T14:35:02;10.95;;;2.50;;
43345;SDS011;28937;51.160;4.146;2023-02-01T14:37:36;11.90;;;2.38;;
43345;SDS011;28937;51.160;4.146;2023-02-01T14:47:54;9.95;;;2.65;;
43345;SDS011;28937;51.160;4.146;2023-02-01T14:55:29;17.35;;;3.03;;
43345;SDS011;28937;51.160;4.146;2023-02-01T14:58:05;14.98;;;3.65;;
43345;SDS011;28937;51.160;4.146;2023-02-01T15:00:41;11.82;;;2.72;;
43345;SDS011;28937;51.160;4.146;2023-02-01T15:05:54;12.98;;;3.25;;
43345;SDS011;28937;51.160;4.146;2023-02-01T15:08:30;13.15;;;3.30;;
43345;SDS011;28937;51.160;4.146;2023-02-01T15:10:59;12.95;;;3.63;;
43345;SDS011;28937;51.160;4.146;2023-02-01T15:13:27;15.45;;;4.07;;
43345;SDS011;28937;51.160;4.146;2023-02-01T15:16:13;19.45;;;4.32;;
43345;SDS011;28937;51.160;4.146;2023-02-01T15:18:40;19.23;;;4.05;;
43345;SDS011;28937;51.160;4.146;2023-02-01T15:21:06;16.95;;;3.53;;
43345;SDS011;28937;51.160;4.146;2023-02-01T15:23:40;18.70;;;4.90;;
43345;SDS011;28937;51.160;4.146;2023-02-01T15:26:05;13.75;;;3.63;;
43345;SDS011;28937;51.160;4.146;2023-02-01T15:28:31;18.52;;;4.10;;
43345;SDS011;28937;51.160;4.146;2023-02-01T15:30:58;15.77;;;4.38;;
43345;SDS011;28937;51.160;4.146;2023-02-01T15:33:25;10.77;;;3.47;;
43345;SDS011;28937;51.160;4.146;2023-02-01T15:36:06;15.80;;;3.55;;
43345;SDS011;28937;51.160;4.146;2023-02-01T15:38:38;18.35;;;3.72;;
43345;SDS011;28937;51.160;4.146;2023-02-01T15:41:09;17.05;;;3.88;;
43345;SDS011;28937;51.160;4.146;2023-02-01T15:46:21;13.68;;;3.38;;
43345;SDS011;28937;51.160;4.146;2023-02-01T15:48:54;11.50;;;2.90;;
43345;SDS011;28937;51.160;4.146;2023-02-01T15:51:22;11.70;;;3.45;;
43345;SDS011;28937;51.160;4.146;2023-02-01T15:54:13;12.73;;;3.22;;
43345;SDS011;28937;51.160;4.146;2023-02-01T15:56:49;13.98;;;3.63;;
43345;SDS011;28937;51.160;4.146;2023-02-01T15:59:19;12.07;;;3.47;;
43345;SDS011;28937;51.160;4.146;2023-02-01T16:01:53;15.18;;;3.78;;
43345;SDS011;28937;51.160;4.146;2023-02-01T16:04:20;17.50;;;5.05;;
43345;SDS011;28937;51.160;4.146;2023-02-01T16:06:59;16.75;;;4.53;;
43345;SDS011;28937;51.160;4.146;2023-02-01T16:09:39;15.77;;;4.25;;
43345;SDS011;28937;51.160;4.146;2023-02-01T16:15:00;16.23;;;4.15;;
43345;SDS011;28937;51.160;4.146;2023-02-01T16:17:27;13.95;;;3.85;;
43345;SDS011;28937;51.160;4.146;2023-02-01T16:19:52;14.77;;;3.72;;
43345;SDS011;28937;51.160;4.146;2023-02-01T16:22:18;10.85;;;3.45;;
43345;SDS011;28937;51.160;4.146;2023-02-01T16:24:44;17.70;;;4.07;;
43345;SDS011;28937;51.160;4.146;2023-02-01T16:27:09;15.43;;;3.45;;
43345;SDS011;28937;51.160;4.146;2023-02-01T16:29:35;12.15;;;2.60;;
43345;SDS011;28937;51.160;4.146;2023-02-01T16:32:01;11.90;;;3.08;;
43345;SDS011;28937;51.160;4.146;2023-02-01T16:34:26;7.45;;;2.50;;
43345;SDS011;28937;51.160;4.146;2023-02-01T16:36:52;9.23;;;2.65;;
43345;SDS011;28937;51.160;4.146;2023-02-01T16:39:21;13.55;;;2.95;;
43345;SDS011;28937;51.160;4.146;2023-02-01T16:41:48;10.52;;;2.90;;
43345;SDS011;28937;51.160;4.146;2023-02-01T16:44:13;10.20;;;2.55;;
43345;SDS011;28937;51.160;4.146;2023-02-01T16:46:40;8.75;;;2.60;;
43345;SDS011;28937;51.160;4.146;2023-02-01T16:49:20;15.68;;;2.72;;
43345;SDS011;28937;51.160;4.146;2023-02-01T16:51:48;9.63;;;3.17;;
43345;SDS011;28937;51.160;4.146;2023-02-01T16:54:17;14.73;;;3.17;;
43345;SDS011;28937;51.160;4.146;2023-02-01T16:56:43;8.68;;;2.40;;
43345;SDS011;28937;51.160;4.146;2023-02-01T16:59:10;13.45;;;2.83;;
43345;SDS011;28937;51.160;4.146;2023-02-01T17:01:35;15.38;;;2.83;;
43345;SDS011;28937;51.160;4.146;2023-02-01T17:04:05;8.48;;;2.88;;
43345;SDS011;28937;51.160;4.146;2023-02-01T17:06:31;11.88;;;2.85;;
43345;SDS011;28937;51.160;4.146;2023-02-01T17:09:01;16.02;;;3.53;;
43345;SDS011;28937;51.160;4.146;2023-02-01T17:11:28;18.77;;;3.53;;
43345;SDS011;28937;51.160;4.146;2023-02-01T17:14:01;11.35;;;2.92;;
43345;SDS011;28937;51.160;4.146;2023-02-01T17:16:44;11.43;;;3.40;;
43345;SDS011;28937;51.160;4.146;2023-02-01T17:19:16;14.60;;;3.20;;
43345;SDS011;28937;51.160;4.146;2023-02-01T17:21:45;11.75;;;3.25;;
43345;SDS011;28937;51.160;4.146;2023-02-01T17:24:15;13.15;;;3.63;;
43345;SDS011;28937;51.160;4.146;2023-02-01T17:26:42;12.65;;;3.42;;
43345;SDS011;28937;51.160;4.146;2023-02-01T17:29:08;12.45;;;3.67;;
43345;SDS011;28937;51.160;4.146;2023-02-01T17:31:38;16.98;;;3.58;;
43345;SDS011;28937;51.160;4.146;2023-02-01T17:34:08;20.55;;;5.10;;
43345;SDS011;28937;51.160;4.146;2023-02-01T17:36:39;13.30;;;3.72;;
43345;SDS011;28937;51.160;4.146;2023-02-01T17:39:09;15.57;;;4.10;;
43345;SDS011;28937;51.160;4.146;2023-02-01T17:41:35;15.60;;;4.40;;
43345;SDS011;28937;51.160;4.146;2023-02-01T17:44:02;20.95;;;4.95;;
43345;SDS011;28937;51.160;4.146;2023-02-01T17:46:28;15.20;;;3.72;;
43345;SDS011;28937;51.160;4.146;2023-02-01T17:48:55;17.55;;;4.68;;
43345;SDS011;28937;51.160;4.146;2023-02-01T17:51:22;20.13;;;5.55;;
43345;SDS011;28937;51.160;4.146;2023-02-01T17:53:51;16.58;;;4.25;;